sensor_id;sensor_type;location;lat;lon;timestamp;P1;durP1;ratioP1;P2;durP2;ratioP2
51594;SDS011;37677;53.254;6.594;2023-06-14T00:00:04;3.55;;;2.13;;
51594;SDS011;37677;53.254;6.594;2023-06-14T00:02:32;4.22;;;2.22;;
51594;SDS011;37677;53.254;6.594;2023-06-14T00:04:58;4.13;;;2.20;;
51594;SDS011;37677;53.254;6.594;2023-06-14T00:07:37;6.53;;;2.75;;
51594;SDS011;37677;53.254;6.594;2023-06-14T00:10:07;4.63;;;2.10;;
51594;SDS011;37677;53.254;6.594;2023-06-14T00:12:34;6.20;;;2.42;;
51594;SDS011;37677;53.254;6.594;2023-06-14T00:15:01;6.15;;;2.25;;
51594;SDS011;37677;53.254;6.594;2023-06-14T00:17:28;4.40;;;2.10;;
51594;SDS011;37677;53.254;6.594;2023-06-14T00:19:58;8.82;;;2.47;;
51594;SDS011;37677;53.254;6.594;2023-06-14T00:22:24;4.18;;;2.60;;
51594;SDS011;37677;53.254;6.594;2023-06-14T00:24:53;4.78;;;2.05;;
51594;SDS011;37677;53.254;6.594;2023-06-14T00:27:19;5.22;;;2.05;;
51594;SDS011;37677;53.254;6.594;2023-06-14T00:29:48;2.85;;;2.00;;
51594;SDS011;37677;53.254;6.594;2023-06-14T00:32:15;3.20;;;1.80;;
51594;SDS011;37677;53.254;6.594;2023-06-14T00:34:42;3.38;;;2.00;;
51594;SDS011;37677;53.254;6.594;2023-06-14T00:37:08;2.97;;;2.15;;
51594;SDS011;37677;53.254;6.594;2023-06-14T00:39:34;3.63;;;2.17;;
51594;SDS011;37677;53.254;6.594;2023-06-14T00:42:00;4.43;;;2.15;;
51594;SDS011;37677;53.254;6.594;2023-06-14T00:44:28;4.75;;;1.77;;
51594;SDS011;37677;53.254;6.594;2023-06-14T00:46:54;3.75;;;2.13;;
51594;SDS011;37677;53.254;6.594;2023-06-14T00:49:20;4.65;;;1.83;;
51594;SDS011;37677;53.254;6.594;2023-06-14T00:51:49;5.03;;;2.30;;
51594;SDS011;37677;53.254;6.594;2023-06-14T00:54:16;4.63;;;2.15;;
51594;SDS011;37677;53.254;6.594;2023-06-14T00:56:42;4.90;;;2.00;;
51594;SDS011;37677;53.254;6.594;2023-06-14T00:59:10;4.90;;;1.90;;
51594;SDS011;37677;53.254;6.594;2023-06-14T01:01:36;2.92;;;1.75;;
51594;SDS011;37677;53.254;6.594;2023-06-14T01:04:03;5.85;;;1.88;;
51594;SDS011;37677;53.254;6.594;2023-06-14T01:06:36;2.80;;;1.77;;
51594;SDS011;37677;53.254;6.594;2023-06-14T01:12:09;3.20;;;2.05;;
51594;SDS011;37677;53.254;6.594;2023-06-14T01:14:40;5.65;;;1.83;;
51594;SDS011;37677;53.254;6.594;2023-06-14T01:17:10;3.10;;;1.60;;
51594;SDS011;37677;53.254;6.594;2023-06-14T01:19:44;5.03;;;2.40;;
51594;SDS011;37677;53.254;6.594;2023-06-14T01:22:14;4.28;;;1.80;;
51594;SDS011;37677;53.254;6.594;2023-06-14T01:24:40;6.68;;;2.15;;
51594;SDS011;37677;53.254;6.594;2023-06-14T01:27:09;5.60;;;2.20;;
51594;SDS011;37677;53.254;6.594;2023-06-14T01:29:36;5.85;;;2.03;;
51594;SDS011;37677;53.254;6.594;2023-06-14T01:32:03;3.47;;;1.83;;
51594;SDS011;37677;53.254;6.594;2023-06-14T01:34:30;3.67;;;1.85;;
51594;SDS011;37677;53.254;6.594;2023-06-14T01:36:56;2.95;;;2.00;;
51594;SDS011;37677;53.254;6.594;2023-06-14T01:39:26;4.43;;;1.80;;
51594;SDS011;37677;53.254;6.594;2023-06-14T01:41:52;4.75;;;2.03;;
51594;SDS011;37677;53.254;6.594;2023-06-14T01:44:23;3.13;;;1.85;;
51594;SDS011;37677;53.254;6.594;2023-06-14T01:46:51;5.75;;;1.90;;
51594;SDS011;37677;53.254;6.594;2023-06-14T01:49:17;4.07;;;2.13;;
51594;SDS011;37677;53.254;6.594;2023-06-14T01:51:43;3.60;;;1.60;;
51594;SDS011;37677;53.254;6.594;2023-06-14T01:54:10;3.58;;;2.28;;
51594;SDS011;37677;53.254;6.594;2023-06-14T01:56:39;4.22;;;1.98;;
51594;SDS011;37677;53.254;6.594;2023-06-14T01:59:05;3.55;;;2.20;;
51594;SDS011;37677;53.254;6.594;2023-06-14T02:01:31;3.58;;;2.10;;
51594;SDS011;37677;53.254;6.594;2023-06-14T02:03:59;4.22;;;2.10;;
51594;SDS011;37677;53.254;6.594;2023-06-14T02:06:26;2.90;;;1.88;;
51594;SDS011;37677;53.254;6.594;2023-06-14T02:08:53;4.13;;;2.10;;
51594;SDS011;37677;53.254;6.594;2023-06-14T02:11:21;3.70;;;2.15;;
51594;SDS011;37677;53.254;6.594;2023-06-14T02:13:47;6.00;;;2.25;;
51594;SDS011;37677;53.254;6.594;2023-06-14T02:16:16;6.20;;;2.00;;
51594;SDS011;37677;53.254;6.594;2023-06-14T02:18:42;4.03;;;1.98;;
51594;SDS011;37677;53.254;6.594;2023-06-14T02:21:08;5.03;;;2.20;;
51594;SDS011;37677;53.254;6.594;2023-06-14T02:23:35;3.90;;;1.80;;
51594;SDS011;37677;53.254;6.594;2023-06-14T02:26:02;3.70;;;2.15;;
51594;SDS011;37677;53.254;6.594;2023-06-14T02:28:28;5.63;;;2.20;;
51594;SDS011;37677;53.254;6.594;2023-06-14T02:30:55;3.65;;;2.30;;
51594;SDS011;37677;53.254;6.594;2023-06-14T02:33:21;5.30;;;2.10;;
51594;SDS011;37677;53.254;6.594;2023-06-14T02:35:48;4.80;;;2.13;;
51594;SDS011;37677;53.254;6.594;2023-06-14T02:38:15;2.90;;;2.28;;
51594;SDS011;37677;53.254;6.594;2023-06-14T02:40:41;2.17;;;1.88;;
51594;SDS011;37677;53.254;6.594;2023-06-14T02:43:08;2.30;;;1.95;;
51594;SDS011;37677;53.254;6.594;2023-06-14T02:45:34;3.00;;;2.00;;
51594;SDS011;37677;53.254;6.594;2023-06-14T02:48:01;4.20;;;2.40;;
51594;SDS011;37677;53.254;6.594;2023-06-14T02:50:27;5.40;;;2.38;;
51594;SDS011;37677;53.254;6.594;2023-06-14T02:52:58;4.18;;;2.53;;
51594;SDS011;37677;53.254;6.594;2023-06-14T02:55:26;4.30;;;2.40;;
51594;SDS011;37677;53.254;6.594;2023-06-14T02:57:56;3.78;;;2.10;;
51594;SDS011;37677;53.254;6.594;2023-06-14T03:00:22;4.80;;;2.08;;
51594;SDS011;37677;53.254;6.594;2023-06-14T03:02:49;5.72;;;2.65;;
51594;SDS011;37677;53.254;6.594;2023-06-14T03:05:18;2.83;;;2.08;;
51594;SDS011;37677;53.254;6.594;2023-06-14T03:07:48;5.60;;;2.25;;
51594;SDS011;37677;53.254;6.594;2023-06-14T03:12:45;3.53;;;2.38;;
51594;SDS011;37677;53.254;6.594;2023-06-14T03:15:12;5.75;;;2.30;;
51594;SDS011;37677;53.254;6.594;2023-06-14T03:17:38;3.38;;;2.15;;
51594;SDS011;37677;53.254;6.594;2023-06-14T03:20:06;4.60;;;2.40;;
51594;SDS011;37677;53.254;6.594;2023-06-14T03:22:33;5.22;;;2.00;;
51594;SDS011;37677;53.254;6.594;2023-06-14T03:25:00;6.55;;;2.63;;
51594;SDS011;37677;53.254;6.594;2023-06-14T03:27:26;3.08;;;2.00;;
51594;SDS011;37677;53.254;6.594;2023-06-14T03:29:54;5.15;;;2.05;;
51594;SDS011;37677;53.254;6.594;2023-06-14T03:32:20;5.40;;;2.90;;
51594;SDS011;37677;53.254;6.594;2023-06-14T03:34:49;2.80;;;2.35;;
51594;SDS011;37677;53.254;6.594;2023-06-14T03:37:16;4.68;;;2.33;;
51594;SDS011;37677;53.254;6.594;2023-06-14T03:39:44;6.60;;;2.40;;
51594;SDS011;37677;53.254;6.594;2023-06-14T03:42:13;7.75;;;2.28;;
51594;SDS011;37677;53.254;6.594;2023-06-14T03:44:39;3.42;;;2.40;;
51594;SDS011;37677;53.254;6.594;2023-06-14T03:47:05;4.50;;;2.60;;
51594;SDS011;37677;53.254;6.594;2023-06-14T03:49:32;3.72;;;2.50;;
51594;SDS011;37677;53.254;6.594;2023-06-14T03:51:58;15.15;;;2.85;;
51594;SDS011;37677;53.254;6.594;2023-06-14T03:54:27;3.10;;;2.60;;
51594;SDS011;37677;53.254;6.594;2023-06-14T03:56:57;6.25;;;3.00;;
51594;SDS011;37677;53.254;6.594;2023-06-14T03:59:23;5.20;;;2.70;;
51594;SDS011;37677;53.254;6.594;2023-06-14T04:01:50;5.55;;;2.50;;
51594;SDS011;37677;53.254;6.594;2023-06-14T04:04:18;6.45;;;2.55;;
51594;SDS011;37677;53.254;6.594;2023-06-14T04:06:52;4.22;;;2.50;;
51594;SDS011;37677;53.254;6.594;2023-06-14T04:09:18;5.35;;;2.60;;
51594;SDS011;37677;53.254;6.594;2023-06-14T04:11:53;6.10;;;2.78;;
51594;SDS011;37677;53.254;6.594;2023-06-14T04:14:22;3.75;;;2.60;;
51594;SDS011;37677;53.254;6.594;2023-06-14T04:16:48;6.68;;;2.92;;
51594;SDS011;37677;53.254;6.594;2023-06-14T04:19:15;7.63;;;3.13;;
51594;SDS011;37677;53.254;6.594;2023-06-14T04:21:43;8.57;;;3.08;;
51594;SDS011;37677;53.254;6.594;2023-06-14T04:24:09;3.63;;;2.95;;
51594;SDS011;37677;53.254;6.594;2023-06-14T04:26:44;5.28;;;2.63;;
51594;SDS011;37677;53.254;6.594;2023-06-14T04:29:22;5.13;;;2.92;;
51594;SDS011;37677;53.254;6.594;2023-06-14T04:31:48;3.75;;;2.35;;
51594;SDS011;37677;53.254;6.594;2023-06-14T04:34:14;5.53;;;2.67;;
51594;SDS011;37677;53.254;6.594;2023-06-14T04:36:45;3.90;;;3.30;;
51594;SDS011;37677;53.254;6.594;2023-06-14T04:39:16;5.70;;;2.88;;
51594;SDS011;37677;53.254;6.594;2023-06-14T04:41:43;5.70;;;2.83;;
51594;SDS011;37677;53.254;6.594;2023-06-14T04:44:09;4.65;;;2.90;;
51594;SDS011;37677;53.254;6.594;2023-06-14T04:46:36;5.43;;;3.15;;
51594;SDS011;37677;53.254;6.594;2023-06-14T04:49:13;6.80;;;3.05;;
51594;SDS011;37677;53.254;6.594;2023-06-14T04:51:42;4.45;;;2.92;;
51594;SDS011;37677;53.254;6.594;2023-06-14T04:54:10;4.13;;;2.85;;
51594;SDS011;37677;53.254;6.594;2023-06-14T04:56:39;8.85;;;3.08;;
51594;SDS011;37677;53.254;6.594;2023-06-14T04:59:05;5.80;;;2.80;;
51594;SDS011;37677;53.254;6.594;2023-06-14T05:01:32;4.38;;;3.00;;
51594;SDS011;37677;53.254;6.594;2023-06-14T05:03:58;7.30;;;3.03;;
51594;SDS011;37677;53.254;6.594;2023-06-14T05:06:27;5.40;;;3.25;;
51594;SDS011;37677;53.254;6.594;2023-06-14T05:08:53;5.30;;;3.10;;
51594;SDS011;37677;53.254;6.594;2023-06-14T05:11:20;6.88;;;3.13;;
51594;SDS011;37677;53.254;6.594;2023-06-14T05:13:52;6.60;;;3.95;;
51594;SDS011;37677;53.254;6.594;2023-06-14T05:16:18;8.95;;;3.60;;
51594;SDS011;37677;53.254;6.594;2023-06-14T05:18:45;7.30;;;3.47;;
51594;SDS011;37677;53.254;6.594;2023-06-14T05:21:12;6.95;;;3.30;;
51594;SDS011;37677;53.254;6.594;2023-06-14T05:23:42;7.00;;;3.45;;
51594;SDS011;37677;53.254;6.594;2023-06-14T05:26:09;9.80;;;3.30;;
51594;SDS011;37677;53.254;6.594;2023-06-14T05:28:36;7.60;;;3.20;;
51594;SDS011;37677;53.254;6.594;2023-06-14T05:31:02;5.88;;;3.15;;
51594;SDS011;37677;53.254;6.594;2023-06-14T05:33:37;5.05;;;2.70;;
51594;SDS011;37677;53.254;6.594;2023-06-14T05:36:03;5.95;;;2.90;;
51594;SDS011;37677;53.254;6.594;2023-06-14T05:38:30;4.10;;;2.78;;
51594;SDS011;37677;53.254;6.594;2023-06-14T05:40:56;9.15;;;3.28;;
51594;SDS011;37677;53.254;6.594;2023-06-14T05:43:22;3.65;;;2.92;;
51594;SDS011;37677;53.254;6.594;2023-06-14T05:45:48;5.90;;;2.97;;
51594;SDS011;37677;53.254;6.594;2023-06-14T05:48:14;7.45;;;3.13;;
51594;SDS011;37677;53.254;6.594;2023-06-14T05:50:40;5.95;;;2.90;;
51594;SDS011;37677;53.254;6.594;2023-06-14T05:53:08;14.10;;;3.17;;
51594;SDS011;37677;53.254;6.594;2023-06-14T05:55:36;6.03;;;3.40;;
51594;SDS011;37677;53.254;6.594;2023-06-14T05:58:03;5.53;;;3.30;;
51594;SDS011;37677;53.254;6.594;2023-06-14T06:00:29;11.57;;;3.45;;
51594;SDS011;37677;53.254;6.594;2023-06-14T06:02:56;8.23;;;3.35;;
51594;SDS011;37677;53.254;6.594;2023-06-14T06:05:23;10.50;;;3.38;;
51594;SDS011;37677;53.254;6.594;2023-06-14T06:07:49;7.07;;;3.15;;
51594;SDS011;37677;53.254;6.594;2023-06-14T06:10:15;12.10;;;3.30;;
51594;SDS011;37677;53.254;6.594;2023-06-14T06:12:42;4.63;;;3.05;;
51594;SDS011;37677;53.254;6.594;2023-06-14T06:15:09;5.43;;;3.45;;
51594;SDS011;37677;53.254;6.594;2023-06-14T06:17:39;6.28;;;3.45;;
51594;SDS011;37677;53.254;6.594;2023-06-14T06:22:37;6.78;;;3.85;;
51594;SDS011;37677;53.254;6.594;2023-06-14T06:25:03;9.68;;;3.60;;
51594;SDS011;37677;53.254;6.594;2023-06-14T06:27:29;9.45;;;3.65;;
51594;SDS011;37677;53.254;6.594;2023-06-14T06:29:58;7.25;;;3.42;;
51594;SDS011;37677;53.254;6.594;2023-06-14T06:32:27;7.22;;;3.45;;
51594;SDS011;37677;53.254;6.594;2023-06-14T06:34:53;8.80;;;3.75;;
51594;SDS011;37677;53.254;6.594;2023-06-14T06:37:19;4.25;;;3.10;;
51594;SDS011;37677;53.254;6.594;2023-06-14T06:39:45;9.35;;;3.65;;
51594;SDS011;37677;53.254;6.594;2023-06-14T06:42:13;6.95;;;3.17;;
51594;SDS011;37677;53.254;6.594;2023-06-14T06:44:40;9.40;;;3.67;;
51594;SDS011;37677;53.254;6.594;2023-06-14T06:47:06;7.75;;;3.38;;
51594;SDS011;37677;53.254;6.594;2023-06-14T06:49:32;4.68;;;3.00;;
51594;SDS011;37677;53.254;6.594;2023-06-14T06:52:01;8.00;;;3.72;;
51594;SDS011;37677;53.254;6.594;2023-06-14T06:54:27;4.05;;;2.80;;
51594;SDS011;37677;53.254;6.594;2023-06-14T06:56:53;6.07;;;3.03;;
51594;SDS011;37677;53.254;6.594;2023-06-14T06:59:19;7.85;;;3.65;;
51594;SDS011;37677;53.254;6.594;2023-06-14T07:01:46;5.53;;;2.88;;
51594;SDS011;37677;53.254;6.594;2023-06-14T07:04:12;5.00;;;2.88;;
51594;SDS011;37677;53.254;6.594;2023-06-14T07:06:38;6.10;;;3.10;;
51594;SDS011;37677;53.254;6.594;2023-06-14T07:09:05;7.10;;;3.40;;
51594;SDS011;37677;53.254;6.594;2023-06-14T07:11:38;8.05;;;3.03;;
51594;SDS011;37677;53.254;6.594;2023-06-14T07:14:04;4.45;;;3.03;;
51594;SDS011;37677;53.254;6.594;2023-06-14T07:16:31;4.65;;;2.85;;
51594;SDS011;37677;53.254;6.594;2023-06-14T07:18:57;6.80;;;3.10;;
51594;SDS011;37677;53.254;6.594;2023-06-14T07:21:23;8.77;;;3.00;;
51594;SDS011;37677;53.254;6.594;2023-06-14T07:23:51;6.07;;;2.95;;
51594;SDS011;37677;53.254;6.594;2023-06-14T07:26:17;6.28;;;2.97;;
51594;SDS011;37677;53.254;6.594;2023-06-14T07:28:43;6.10;;;2.80;;
51594;SDS011;37677;53.254;6.594;2023-06-14T07:31:12;6.05;;;3.00;;
51594;SDS011;37677;53.254;6.594;2023-06-14T07:33:38;3.85;;;2.60;;
51594;SDS011;37677;53.254;6.594;2023-06-14T07:36:07;5.05;;;2.55;;
51594;SDS011;37677;53.254;6.594;2023-06-14T07:38:36;5.57;;;3.15;;
51594;SDS011;37677;53.254;6.594;2023-06-14T07:41:02;22.52;;;3.00;;
51594;SDS011;37677;53.254;6.594;2023-06-14T07:43:29;8.10;;;2.80;;
51594;SDS011;37677;53.254;6.594;2023-06-14T07:45:58;6.38;;;2.70;;
51594;SDS011;37677;53.254;6.594;2023-06-14T07:48:24;4.72;;;2.60;;
51594;SDS011;37677;53.254;6.594;2023-06-14T07:50:53;8.57;;;2.63;;
51594;SDS011;37677;53.254;6.594;2023-06-14T07:53:19;8.93;;;2.78;;
51594;SDS011;37677;53.254;6.594;2023-06-14T07:55:45;12.80;;;2.70;;
51594;SDS011;37677;53.254;6.594;2023-06-14T07:58:12;9.60;;;3.00;;
51594;SDS011;37677;53.254;6.594;2023-06-14T08:00:38;8.45;;;2.63;;
51594;SDS011;37677;53.254;6.594;2023-06-14T08:03:04;4.68;;;2.42;;
51594;SDS011;37677;53.254;6.594;2023-06-14T08:05:31;8.45;;;2.50;;
51594;SDS011;37677;53.254;6.594;2023-06-14T08:07:58;9.98;;;2.65;;
51594;SDS011;37677;53.254;6.594;2023-06-14T08:10:24;6.97;;;2.40;;
51594;SDS011;37677;53.254;6.594;2023-06-14T08:12:50;6.68;;;2.45;;
51594;SDS011;37677;53.254;6.594;2023-06-14T08:15:16;9.52;;;2.78;;
51594;SDS011;37677;53.254;6.594;2023-06-14T08:17:43;7.15;;;2.85;;
51594;SDS011;37677;53.254;6.594;2023-06-14T08:20:09;8.20;;;2.40;;
51594;SDS011;37677;53.254;6.594;2023-06-14T08:22:36;5.43;;;2.38;;
51594;SDS011;37677;53.254;6.594;2023-06-14T08:25:02;6.90;;;2.70;;
51594;SDS011;37677;53.254;6.594;2023-06-14T08:27:29;6.60;;;2.40;;
51594;SDS011;37677;53.254;6.594;2023-06-14T08:29:55;4.85;;;2.55;;
51594;SDS011;37677;53.254;6.594;2023-06-14T08:32:24;8.80;;;2.50;;
51594;SDS011;37677;53.254;6.594;2023-06-14T08:34:50;7.75;;;2.97;;
51594;SDS011;37677;53.254;6.594;2023-06-14T08:37:17;8.63;;;2.97;;
51594;SDS011;37677;53.254;6.594;2023-06-14T08:39:43;6.68;;;2.42;;
51594;SDS011;37677;53.254;6.594;2023-06-14T08:42:09;5.10;;;3.10;;
51594;SDS011;37677;53.254;6.594;2023-06-14T08:44:36;6.28;;;2.50;;
51594;SDS011;37677;53.254;6.594;2023-06-14T08:47:02;7.35;;;2.80;;
51594;SDS011;37677;53.254;6.594;2023-06-14T08:49:31;6.45;;;2.65;;
51594;SDS011;37677;53.254;6.594;2023-06-14T08:51:57;7.85;;;2.50;;
51594;SDS011;37677;53.254;6.594;2023-06-14T08:54:25;5.95;;;2.58;;
51594;SDS011;37677;53.254;6.594;2023-06-14T08:56:52;3.90;;;2.22;;
51594;SDS011;37677;53.254;6.594;2023-06-14T08:59:23;5.13;;;2.65;;
51594;SDS011;37677;53.254;6.594;2023-06-14T09:01:49;6.80;;;2.65;;
51594;SDS011;37677;53.254;6.594;2023-06-14T09:04:17;6.22;;;2.65;;
51594;SDS011;37677;53.254;6.594;2023-06-14T09:06:45;5.20;;;2.80;;
51594;SDS011;37677;53.254;6.594;2023-06-14T09:09:11;7.57;;;2.47;;
51594;SDS011;37677;53.254;6.594;2023-06-14T09:11:41;8.02;;;3.17;;
51594;SDS011;37677;53.254;6.594;2023-06-14T09:14:08;8.50;;;2.78;;
51594;SDS011;37677;53.254;6.594;2023-06-14T09:16:34;3.80;;;2.70;;
51594;SDS011;37677;53.254;6.594;2023-06-14T09:19:00;6.30;;;2.80;;
51594;SDS011;37677;53.254;6.594;2023-06-14T09:21:27;6.25;;;2.58;;
51594;SDS011;37677;53.254;6.594;2023-06-14T09:23:54;8.35;;;2.75;;
51594;SDS011;37677;53.254;6.594;2023-06-14T09:26:23;11.15;;;2.72;;
51594;SDS011;37677;53.254;6.594;2023-06-14T09:28:49;4.13;;;2.30;;
51594;SDS011;37677;53.254;6.594;2023-06-14T09:31:17;5.43;;;2.67;;
51594;SDS011;37677;53.254;6.594;2023-06-14T09:33:48;4.75;;;2.38;;
51594;SDS011;37677;53.254;6.594;2023-06-14T09:36:15;8.50;;;2.58;;
51594;SDS011;37677;53.254;6.594;2023-06-14T09:38:42;10.88;;;2.83;;
51594;SDS011;37677;53.254;6.594;2023-06-14T09:41:08;9.02;;;2.80;;
51594;SDS011;37677;53.254;6.594;2023-06-14T09:43:34;3.80;;;2.25;;
51594;SDS011;37677;53.254;6.594;2023-06-14T09:46:00;3.90;;;2.25;;
51594;SDS011;37677;53.254;6.594;2023-06-14T09:48:27;6.40;;;2.40;;
51594;SDS011;37677;53.254;6.594;2023-06-14T09:50:53;4.72;;;2.80;;
51594;SDS011;37677;53.254;6.594;2023-06-14T09:53:25;4.35;;;2.30;;
51594;SDS011;37677;53.254;6.594;2023-06-14T09:55:51;5.70;;;2.47;;
51594;SDS011;37677;53.254;6.594;2023-06-14T09:58:18;4.13;;;2.22;;
51594;SDS011;37677;53.254;6.594;2023-06-14T10:00:46;7.95;;;2.50;;
51594;SDS011;37677;53.254;6.594;2023-06-14T10:03:14;8.15;;;2.45;;
51594;SDS011;37677;53.254;6.594;2023-06-14T10:05:43;3.75;;;2.42;;
51594;SDS011;37677;53.254;6.594;2023-06-14T10:08:13;6.18;;;2.13;;
51594;SDS011;37677;53.254;6.594;2023-06-14T10:10:40;4.13;;;2.47;;
51594;SDS011;37677;53.254;6.594;2023-06-14T10:13:07;4.80;;;2.33;;
51594;SDS011;37677;53.254;6.594;2023-06-14T10:18:36;7.07;;;2.78;;
51594;SDS011;37677;53.254;6.594;2023-06-14T10:23:41;7.25;;;2.97;;
51594;SDS011;37677;53.254;6.594;2023-06-14T10:26:08;4.95;;;2.47;;
51594;SDS011;37677;53.254;6.594;2023-06-14T10:28:37;4.32;;;2.28;;
51594;SDS011;37677;53.254;6.594;2023-06-14T10:31:10;7.05;;;2.22;;
51594;SDS011;37677;53.254;6.594;2023-06-14T10:33:39;8.27;;;2.80;;
51594;SDS011;37677;53.254;6.594;2023-06-14T10:36:25;3.13;;;2.20;;
51594;SDS011;37677;53.254;6.594;2023-06-14T10:41:41;5.90;;;2.30;;
51594;SDS011;37677;53.254;6.594;2023-06-14T10:44:10;5.53;;;2.38;;
51594;SDS011;37677;53.254;6.594;2023-06-14T10:46:36;3.08;;;2.35;;
51594;SDS011;37677;53.254;6.594;2023-06-14T10:49:02;3.80;;;2.22;;
51594;SDS011;37677;53.254;6.594;2023-06-14T10:51:29;5.30;;;2.30;;
51594;SDS011;37677;53.254;6.594;2023-06-14T10:53:57;3.67;;;2.20;;
51594;SDS011;37677;53.254;6.594;2023-06-14T10:58:51;5.05;;;2.40;;
51594;SDS011;37677;53.254;6.594;2023-06-14T11:01:31;4.72;;;2.50;;
51594;SDS011;37677;53.254;6.594;2023-06-14T11:04:00;5.50;;;2.15;;
51594;SDS011;37677;53.254;6.594;2023-06-14T11:06:36;4.07;;;2.30;;
51594;SDS011;37677;53.254;6.594;2023-06-14T11:11:50;4.45;;;2.20;;
51594;SDS011;37677;53.254;6.594;2023-06-14T11:14:17;3.97;;;2.20;;
51594;SDS011;37677;53.254;6.594;2023-06-14T11:16:47;3.65;;;2.40;;
51594;SDS011;37677;53.254;6.594;2023-06-14T11:19:13;6.75;;;2.25;;
51594;SDS011;37677;53.254;6.594;2023-06-14T11:21:40;5.38;;;2.50;;
51594;SDS011;37677;53.254;6.594;2023-06-14T11:24:09;3.38;;;1.90;;
51594;SDS011;37677;53.254;6.594;2023-06-14T11:26:37;2.50;;;2.30;;
51594;SDS011;37677;53.254;6.594;2023-06-14T11:29:03;4.90;;;1.90;;
51594;SDS011;37677;53.254;6.594;2023-06-14T11:31:29;6.32;;;2.10;;
51594;SDS011;37677;53.254;6.594;2023-06-14T11:33:59;3.53;;;1.95;;
51594;SDS011;37677;53.254;6.594;2023-06-14T11:36:30;5.40;;;2.30;;
51594;SDS011;37677;53.254;6.594;2023-06-14T11:39:03;8.55;;;2.47;;
51594;SDS011;37677;53.254;6.594;2023-06-14T11:41:38;6.00;;;2.03;;
51594;SDS011;37677;53.254;6.594;2023-06-14T11:44:05;6.60;;;2.17;;
51594;SDS011;37677;53.254;6.594;2023-06-14T11:46:31;4.88;;;2.10;;
51594;SDS011;37677;53.254;6.594;2023-06-14T11:48:57;7.78;;;2.00;;
51594;SDS011;37677;53.254;6.594;2023-06-14T11:51:26;4.30;;;2.03;;
51594;SDS011;37677;53.254;6.594;2023-06-14T11:53:52;5.43;;;2.00;;
51594;SDS011;37677;53.254;6.594;2023-06-14T11:56:19;5.45;;;1.85;;
51594;SDS011;37677;53.254;6.594;2023-06-14T11:58:45;3.92;;;1.95;;
51594;SDS011;37677;53.254;6.594;2023-06-14T12:01:16;6.22;;;1.90;;
51594;SDS011;37677;53.254;6.594;2023-06-14T12:03:49;5.97;;;2.03;;
51594;SDS011;37677;53.254;6.594;2023-06-14T12:06:15;6.10;;;1.60;;
51594;SDS011;37677;53.254;6.594;2023-06-14T12:08:43;3.20;;;2.00;;
51594;SDS011;37677;53.254;6.594;2023-06-14T12:11:13;5.10;;;2.10;;
51594;SDS011;37677;53.254;6.594;2023-06-14T12:13:40;2.03;;;1.80;;
51594;SDS011;37677;53.254;6.594;2023-06-14T12:16:08;8.43;;;2.10;;
51594;SDS011;37677;53.254;6.594;2023-06-14T12:18:35;3.35;;;1.70;;
51594;SDS011;37677;53.254;6.594;2023-06-14T12:21:05;7.65;;;1.75;;
51594;SDS011;37677;53.254;6.594;2023-06-14T12:26:17;2.58;;;2.13;;
51594;SDS011;37677;53.254;6.594;2023-06-14T12:28:47;2.78;;;1.67;;
51594;SDS011;37677;53.254;6.594;2023-06-14T12:31:14;3.72;;;1.67;;
51594;SDS011;37677;53.254;6.594;2023-06-14T12:33:41;4.93;;;1.60;;
51594;SDS011;37677;53.254;6.594;2023-06-14T12:36:07;3.42;;;1.95;;
51594;SDS011;37677;53.254;6.594;2023-06-14T12:38:36;2.10;;;1.40;;
51594;SDS011;37677;53.254;6.594;2023-06-14T12:41:03;4.93;;;1.75;;
51594;SDS011;37677;53.254;6.594;2023-06-14T12:43:29;2.70;;;1.80;;
51594;SDS011;37677;53.254;6.594;2023-06-14T12:45:55;3.25;;;1.70;;
51594;SDS011;37677;53.254;6.594;2023-06-14T12:48:22;2.83;;;1.50;;
51594;SDS011;37677;53.254;6.594;2023-06-14T12:50:48;4.53;;;1.63;;
51594;SDS011;37677;53.254;6.594;2023-06-14T12:53:14;4.68;;;1.65;;
51594;SDS011;37677;53.254;6.594;2023-06-14T12:55:40;3.25;;;1.80;;
51594;SDS011;37677;53.254;6.594;2023-06-14T12:58:06;2.72;;;1.90;;
51594;SDS011;37677;53.254;6.594;2023-06-14T13:00:33;3.92;;;1.90;;
51594;SDS011;37677;53.254;6.594;2023-06-14T13:02:59;2.53;;;1.80;;
51594;SDS011;37677;53.254;6.594;2023-06-14T13:05:25;5.72;;;1.80;;
51594;SDS011;37677;53.254;6.594;2023-06-14T13:07:51;3.15;;;1.90;;
51594;SDS011;37677;53.254;6.594;2023-06-14T13:10:17;7.20;;;1.70;;
51594;SDS011;37677;53.254;6.594;2023-06-14T13:12:44;3.40;;;1.50;;
51594;SDS011;37677;53.254;6.594;2023-06-14T13:15:10;4.07;;;1.90;;
51594;SDS011;37677;53.254;6.594;2023-06-14T13:17:38;5.80;;;2.17;;
51594;SDS011;37677;53.254;6.594;2023-06-14T13:20:07;3.45;;;1.67;;
51594;SDS011;37677;53.254;6.594;2023-06-14T13:22:34;8.25;;;2.25;;
51594;SDS011;37677;53.254;6.594;2023-06-14T13:25:01;11.10;;;2.33;;
51594;SDS011;37677;53.254;6.594;2023-06-14T13:27:27;2.92;;;1.63;;
51594;SDS011;37677;53.254;6.594;2023-06-14T13:29:56;3.95;;;1.80;;
51594;SDS011;37677;53.254;6.594;2023-06-14T13:32:22;2.58;;;1.63;;
51594;SDS011;37677;53.254;6.594;2023-06-14T13:34:48;1.60;;;1.50;;
51594;SDS011;37677;53.254;6.594;2023-06-14T13:37:14;2.75;;;1.50;;
51594;SDS011;37677;53.254;6.594;2023-06-14T13:39:41;5.07;;;2.00;;
51594;SDS011;37677;53.254;6.594;2023-06-14T13:42:09;3.45;;;1.73;;
51594;SDS011;37677;53.254;6.594;2023-06-14T13:44:36;3.47;;;1.75;;
51594;SDS011;37677;53.254;6.594;2023-06-14T13:47:02;4.97;;;2.00;;
51594;SDS011;37677;53.254;6.594;2023-06-14T13:49:29;6.28;;;1.80;;
51594;SDS011;37677;53.254;6.594;2023-06-14T13:51:55;2.28;;;1.58;;
51594;SDS011;37677;53.254;6.594;2023-06-14T13:54:22;3.72;;;1.85;;
51594;SDS011;37677;53.254;6.594;2023-06-14T13:56:48;5.00;;;1.70;;
51594;SDS011;37677;53.254;6.594;2023-06-14T13:59:14;7.70;;;1.92;;
51594;SDS011;37677;53.254;6.594;2023-06-14T14:01:42;2.50;;;1.67;;
51594;SDS011;37677;53.254;6.594;2023-06-14T14:04:27;6.17;;;1.73;;
51594;SDS011;37677;53.254;6.594;2023-06-14T14:06:55;3.67;;;1.85;;
51594;SDS011;37677;53.254;6.594;2023-06-14T14:09:23;10.85;;;2.08;;
51594;SDS011;37677;53.254;6.594;2023-06-14T14:11:59;2.92;;;1.70;;
51594;SDS011;37677;53.254;6.594;2023-06-14T14:14:28;15.68;;;2.13;;
51594;SDS011;37677;53.254;6.594;2023-06-14T14:16:56;2.92;;;2.00;;
51594;SDS011;37677;53.254;6.594;2023-06-14T14:19:22;2.58;;;1.77;;
51594;SDS011;37677;53.254;6.594;2023-06-14T14:21:49;9.20;;;2.00;;
51594;SDS011;37677;53.254;6.594;2023-06-14T14:24:50;3.00;;;2.03;;
51594;SDS011;37677;53.254;6.594;2023-06-14T14:27:21;2.50;;;1.65;;
51594;SDS011;37677;53.254;6.594;2023-06-14T14:29:47;6.57;;;1.83;;
51594;SDS011;37677;53.254;6.594;2023-06-14T14:32:13;3.33;;;1.70;;
51594;SDS011;37677;53.254;6.594;2023-06-14T14:34:40;5.65;;;1.73;;
51594;SDS011;37677;53.254;6.594;2023-06-14T14:37:07;4.18;;;1.90;;
51594;SDS011;37677;53.254;6.594;2023-06-14T14:39:38;4.40;;;2.00;;
51594;SDS011;37677;53.254;6.594;2023-06-14T14:42:09;7.05;;;1.83;;
51594;SDS011;37677;53.254;6.594;2023-06-14T14:45:05;6.22;;;2.00;;
51594;SDS011;37677;53.254;6.594;2023-06-14T14:47:32;4.47;;;1.77;;
51594;SDS011;37677;53.254;6.594;2023-06-14T14:49:58;4.65;;;2.00;;
51594;SDS011;37677;53.254;6.594;2023-06-14T14:52:26;3.90;;;1.90;;
51594;SDS011;37677;53.254;6.594;2023-06-14T14:54:52;4.50;;;2.17;;
51594;SDS011;37677;53.254;6.594;2023-06-14T14:57:19;1.83;;;1.55;;
51594;SDS011;37677;53.254;6.594;2023-06-14T14:59:45;2.83;;;2.05;;
51594;SDS011;37677;53.254;6.594;2023-06-14T15:02:11;6.00;;;1.98;;
51594;SDS011;37677;53.254;6.594;2023-06-14T15:04:40;4.97;;;1.90;;
51594;SDS011;37677;53.254;6.594;2023-06-14T15:07:09;5.85;;;2.10;;
51594;SDS011;37677;53.254;6.594;2023-06-14T15:09:41;4.40;;;1.67;;
51594;SDS011;37677;53.254;6.594;2023-06-14T15:12:16;4.78;;;1.98;;
51594;SDS011;37677;53.254;6.594;2023-06-14T15:14:51;2.78;;;1.70;;